sensor_id;sensor_type;location;lat;lon;timestamp;temperature;humidity
82231;DHT22;71832;45.138;9.816;2023-07-30T00:00:17;23.30;72.30
82231;DHT22;71832;45.138;9.816;2023-07-30T00:02:46;23.30;72.40
82231;DHT22;71832;45.138;9.816;2023-07-30T00:05:14;23.30;73.00
82231;DHT22;71832;45.138;9.816;2023-07-30T00:07:46;23.30;73.50
82231;DHT22;71832;45.138;9.816;2023-07-30T00:10:15;23.20;73.60
82231;DHT22;71832;45.138;9.816;2023-07-30T00:12:43;23.10;74.30
82231;DHT22;71832;45.138;9.816;2023-07-30T00:15:11;23.00;74.60
82231;DHT22;71832;45.138;9.816;2023-07-30T00:17:40;22.90;74.70
82231;DHT22;71832;45.138;9.816;2023-07-30T00:20:08;22.80;75.00
82231;DHT22;71832;45.138;9.816;2023-07-30T00:22:36;22.80;75.00
82231;DHT22;71832;45.138;9.816;2023-07-30T00:25:04;22.80;75.20
82231;DHT22;71832;45.138;9.816;2023-07-30T00:27:32;22.80;74.90
82231;DHT22;71832;45.138;9.816;2023-07-30T00:30:01;22.90;74.00
82231;DHT22;71832;45.138;9.816;2023-07-30T00:32:28;22.90;74.40
82231;DHT22;71832;45.138;9.816;2023-07-30T00:34:56;23.00;74.80
82231;DHT22;71832;45.138;9.816;2023-07-30T00:37:30;23.00;74.50
82231;DHT22;71832;45.138;9.816;2023-07-30T00:39:59;23.00;74.50
82231;DHT22;71832;45.138;9.816;2023-07-30T00:42:27;23.00;75.10
82231;DHT22;71832;45.138;9.816;2023-07-30T00:44:56;23.00;75.30
82231;DHT22;71832;45.138;9.816;2023-07-30T00:47:25;23.00;75.50
82231;DHT22;71832;45.138;9.816;2023-07-30T00:49:54;23.00;74.20
82231;DHT22;71832;45.138;9.816;2023-07-30T00:52:24;23.10;73.80
82231;DHT22;71832;45.138;9.816;2023-07-30T00:54:54;23.10;74.30
82231;DHT22;71832;45.138;9.816;2023-07-30T00:57:26;23.10;74.60
82231;DHT22;71832;45.138;9.816;2023-07-30T00:59:55;23.20;73.80
82231;DHT22;71832;45.138;9.816;2023-07-30T01:02:24;23.20;73.10
82231;DHT22;71832;45.138;9.816;2023-07-30T01:04:53;23.30;72.50
82231;DHT22;71832;45.138;9.816;2023-07-30T01:07:22;23.20;72.10
82231;DHT22;71832;45.138;9.816;2023-07-30T01:09:50;23.20;74.50
82231;DHT22;71832;45.138;9.816;2023-07-30T01:12:19;23.10;74.10
82231;DHT22;71832;45.138;9.816;2023-07-30T01:14:48;23.10;73.30
82231;DHT22;71832;45.138;9.816;2023-07-30T01:17:18;23.10;73.80
82231;DHT22;71832;45.138;9.816;2023-07-30T01:19:47;23.10;73.40
82231;DHT22;71832;45.138;9.816;2023-07-30T01:22:17;23.10;73.30
82231;DHT22;71832;45.138;9.816;2023-07-30T01:24:46;23.10;74.60
82231;DHT22;71832;45.138;9.816;2023-07-30T01:27:19;23.00;75.30
82231;DHT22;71832;45.138;9.816;2023-07-30T01:29:53;22.90;76.10
82231;DHT22;71832;45.138;9.816;2023-07-30T01:32:26;22.80;76.50
82231;DHT22;71832;45.138;9.816;2023-07-30T01:34:58;22.70;77.20
82231;DHT22;71832;45.138;9.816;2023-07-30T01:37:30;22.60;77.50
82231;DHT22;71832;45.138;9.816;2023-07-30T01:39:59;22.60;78.00
82231;DHT22;71832;45.138;9.816;2023-07-30T01:42:29;22.50;78.30
82231;DHT22;71832;45.138;9.816;2023-07-30T01:44:58;22.50;78.20
82231;DHT22;71832;45.138;9.816;2023-07-30T01:47:27;22.50;78.30
82231;DHT22;71832;45.138;9.816;2023-07-30T01:49:56;22.40;78.50
82231;DHT22;71832;45.138;9.816;2023-07-30T01:52:24;22.30;78.60
82231;DHT22;71832;45.138;9.816;2023-07-30T01:54:53;22.30;78.90
82231;DHT22;71832;45.138;9.816;2023-07-30T01:57:23;22.20;79.50
82231;DHT22;71832;45.138;9.816;2023-07-30T01:59:52;22.10;80.00
82231;DHT22;71832;45.138;9.816;2023-07-30T02:02:20;22.20;80.10
82231;DHT22;71832;45.138;9.816;2023-07-30T02:04:49;22.20;80.20
82231;DHT22;71832;45.138;9.816;2023-07-30T02:07:18;22.10;79.90
82231;DHT22;71832;45.138;9.816;2023-07-30T02:09:47;22.10;80.10
82231;DHT22;71832;45.138;9.816;2023-07-30T02:12:15;22.10;80.00
82231;DHT22;71832;45.138;9.816;2023-07-30T02:14:44;22.10;79.80
82231;DHT22;71832;45.138;9.816;2023-07-30T02:17:13;22.10;79.70
82231;DHT22;71832;45.138;9.816;2023-07-30T02:19:42;22.20;79.60
82231;DHT22;71832;45.138;9.816;2023-07-30T02:22:11;22.20;79.60
82231;DHT22;71832;45.138;9.816;2023-07-30T02:24:40;22.10;79.90
82231;DHT22;71832;45.138;9.816;2023-07-30T02:27:08;22.10;80.30
82231;DHT22;71832;45.138;9.816;2023-07-30T02:29:37;22.10;80.20
82231;DHT22;71832;45.138;9.816;2023-07-30T02:32:06;22.00;80.60
82231;DHT22;71832;45.138;9.816;2023-07-30T02:34:35;22.00;80.80
82231;DHT22;71832;45.138;9.816;2023-07-30T02:37:04;21.90;80.90
82231;DHT22;71832;45.138;9.816;2023-07-30T02:39:32;21.90;81.00
82231;DHT22;71832;45.138;9.816;2023-07-30T02:42:00;22.00;80.80
82231;DHT22;71832;45.138;9.816;2023-07-30T02:44:29;22.00;80.70
82231;DHT22;71832;45.138;9.816;2023-07-30T02:46:57;22.00;80.80
82231;DHT22;71832;45.138;9.816;2023-07-30T02:49:25;22.00;80.90
82231;DHT22;71832;45.138;9.816;2023-07-30T02:51:53;22.00;81.00
82231;DHT22;71832;45.138;9.816;2023-07-30T02:54:22;22.00;80.70
82231;DHT22;71832;45.138;9.816;2023-07-30T02:56:51;22.00;80.70
82231;DHT22;71832;45.138;9.816;2023-07-30T02:59:20;22.10;80.50
82231;DHT22;71832;45.138;9.816;2023-07-30T03:01:48;22.10;80.40
82231;DHT22;71832;45.138;9.816;2023-07-30T03:04:17;22.10;80.50
82231;DHT22;71832;45.138;9.816;2023-07-30T03:06:46;22.10;80.60
82231;DHT22;71832;45.138;9.816;2023-07-30T03:09:14;22.00;80.60
82231;DHT22;71832;45.138;9.816;2023-07-30T03:11:43;22.00;80.50
82231;DHT22;71832;45.138;9.816;2023-07-30T03:14:12;22.00;79.60
82231;DHT22;71832;45.138;9.816;2023-07-30T03:16:40;22.00;79.90
82231;DHT22;71832;45.138;9.816;2023-07-30T03:19:09;22.10;79.80
82231;DHT22;71832;45.138;9.816;2023-07-30T03:21:38;22.10;79.80
82231;DHT22;71832;45.138;9.816;2023-07-30T03:24:07;22.10;80.00
82231;DHT22;71832;45.138;9.816;2023-07-30T03:26:35;22.10;79.80
82231;DHT22;71832;45.138;9.816;2023-07-30T03:29:04;22.10;79.20
82231;DHT22;71832;45.138;9.816;2023-07-30T03:31:33;22.10;79.00
82231;DHT22;71832;45.138;9.816;2023-07-30T03:34:01;22.10;79.10
82231;DHT22;71832;45.138;9.816;2023-07-30T03:36:30;22.10;79.10
82231;DHT22;71832;45.138;9.816;2023-07-30T03:38:59;22.10;79.10
82231;DHT22;71832;45.138;9.816;2023-07-30T03:41:28;22.00;79.30
82231;DHT22;71832;45.138;9.816;2023-07-30T03:43:56;22.00;79.40
82231;DHT22;71832;45.138;9.816;2023-07-30T03:46:26;22.00;79.50
82231;DHT22;71832;45.138;9.816;2023-07-30T03:48:54;22.00;79.80
82231;DHT22;71832;45.138;9.816;2023-07-30T03:51:22;22.00;79.90
82231;DHT22;71832;45.138;9.816;2023-07-30T03:53:50;21.90;80.00
82231;DHT22;71832;45.138;9.816;2023-07-30T03:56:19;22.00;80.20
82231;DHT22;71832;45.138;9.816;2023-07-30T03:58:47;21.90;80.60
82231;DHT22;71832;45.138;9.816;2023-07-30T04:01:18;21.90;80.60
82231;DHT22;71832;45.138;9.816;2023-07-30T04:03:48;21.90;80.70
82231;DHT22;71832;45.138;9.816;2023-07-30T04:06:25;21.90;80.90
82231;DHT22;71832;45.138;9.816;2023-07-30T04:08:53;21.90;81.10
82231;DHT22;71832;45.138;9.816;2023-07-30T04:11:23;21.80;81.10
82231;DHT22;71832;45.138;9.816;2023-07-30T04:13:50;21.80;81.20
82231;DHT22;71832;45.138;9.816;2023-07-30T04:16:19;21.80;81.00
82231;DHT22;71832;45.138;9.816;2023-07-30T04:18:47;21.80;81.10
82231;DHT22;71832;45.138;9.816;2023-07-30T04:21:16;21.80;81.20
82231;DHT22;71832;45.138;9.816;2023-07-30T04:23:45;21.70;81.20
82231;DHT22;71832;45.138;9.816;2023-07-30T04:26:13;21.80;81.30
82231;DHT22;71832;45.138;9.816;2023-07-30T04:28:42;21.70;81.40
82231;DHT22;71832;45.138;9.816;2023-07-30T04:31:10;21.80;81.50
82231;DHT22;71832;45.138;9.816;2023-07-30T04:33:38;21.80;81.70
82231;DHT22;71832;45.138;9.816;2023-07-30T04:36:06;21.70;81.70
82231;DHT22;71832;45.138;9.816;2023-07-30T04:38:35;21.80;81.60
82231;DHT22;71832;45.138;9.816;2023-07-30T04:41:04;21.80;81.80
82231;DHT22;71832;45.138;9.816;2023-07-30T04:43:31;21.80;81.70
82231;DHT22;71832;45.138;9.816;2023-07-30T04:45:59;21.90;81.50
82231;DHT22;71832;45.138;9.816;2023-07-30T04:48:28;21.90;81.50
82231;DHT22;71832;45.138;9.816;2023-07-30T04:50:56;21.90;81.40
82231;DHT22;71832;45.138;9.816;2023-07-30T04:53:24;21.90;81.50
82231;DHT22;71832;45.138;9.816;2023-07-30T04:55:56;21.90;81.40
82231;DHT22;71832;45.138;9.816;2023-07-30T04:58:24;21.90;81.40
82231;DHT22;71832;45.138;9.816;2023-07-30T05:00:52;21.90;81.70
82231;DHT22;71832;45.138;9.816;2023-07-30T05:03:20;22.00;81.60
82231;DHT22;71832;45.138;9.816;2023-07-30T05:05:47;22.00;81.50
82231;DHT22;71832;45.138;9.816;2023-07-30T05:08:15;22.00;81.40
82231;DHT22;71832;45.138;9.816;2023-07-30T05:10:43;22.10;81.40
82231;DHT22;71832;45.138;9.816;2023-07-30T05:13:11;22.10;81.70
82231;DHT22;71832;45.138;9.816;2023-07-30T05:15:40;22.10;82.10
82231;DHT22;71832;45.138;9.816;2023-07-30T05:18:08;22.20;81.60
82231;DHT22;71832;45.138;9.816;2023-07-30T05:20:36;22.20;81.20
82231;DHT22;71832;45.138;9.816;2023-07-30T05:23:05;22.20;81.20
82231;DHT22;71832;45.138;9.816;2023-07-30T05:25:34;22.30;81.00
82231;DHT22;71832;45.138;9.816;2023-07-30T05:28:02;22.40;80.80
82231;DHT22;71832;45.138;9.816;2023-07-30T05:30:31;22.50;81.10
82231;DHT22;71832;45.138;9.816;2023-07-30T05:32:59;22.50;80.90
82231;DHT22;71832;45.138;9.816;2023-07-30T05:35:27;22.50;80.50
82231;DHT22;71832;45.138;9.816;2023-07-30T05:37:57;22.60;80.00
82231;DHT22;71832;45.138;9.816;2023-07-30T05:40:25;22.60;79.80
82231;DHT22;71832;45.138;9.816;2023-07-30T05:42:54;22.70;80.00
82231;DHT22;71832;45.138;9.816;2023-07-30T05:45:21;22.70;80.30
82231;DHT22;71832;45.138;9.816;2023-07-30T05:47:50;22.80;80.00
82231;DHT22;71832;45.138;9.816;2023-07-30T05:50:19;22.90;80.00
82231;DHT22;71832;45.138;9.816;2023-07-30T05:52:48;22.90;79.80
82231;DHT22;71832;45.138;9.816;2023-07-30T05:55:16;23.00;80.00
82231;DHT22;71832;45.138;9.816;2023-07-30T05:57:48;23.00;79.80
82231;DHT22;71832;45.138;9.816;2023-07-30T06:00:16;23.10;78.80
82231;DHT22;71832;45.138;9.816;2023-07-30T06:02:44;23.20;78.80
82231;DHT22;71832;45.138;9.816;2023-07-30T06:05:12;23.20;78.40
82231;DHT22;71832;45.138;9.816;2023-07-30T06:07:39;23.30;77.30
82231;DHT22;71832;45.138;9.816;2023-07-30T06:10:07;23.30;77.10
82231;DHT22;71832;45.138;9.816;2023-07-30T06:12:35;23.40;77.70
82231;DHT22;71832;45.138;9.816;2023-07-30T06:15:05;23.50;77.30
82231;DHT22;71832;45.138;9.816;2023-07-30T06:17:33;23.60;76.70
82231;DHT22;71832;45.138;9.816;2023-07-30T06:20:01;23.60;76.10
82231;DHT22;71832;45.138;9.816;2023-07-30T06:22:30;23.70;75.70
82231;DHT22;71832;45.138;9.816;2023-07-30T06:24:59;23.80;75.80
82231;DHT22;71832;45.138;9.816;2023-07-30T06:27:27;23.90;75.50
82231;DHT22;71832;45.138;9.816;2023-07-30T06:29:54;24.00;75.90
82231;DHT22;71832;45.138;9.816;2023-07-30T06:32:22;24.00;75.40
82231;DHT22;71832;45.138;9.816;2023-07-30T06:34:51;24.00;75.20
82231;DHT22;71832;45.138;9.816;2023-07-30T06:37:19;24.10;74.80
82231;DHT22;71832;45.138;9.816;2023-07-30T06:39:47;24.20;74.90
82231;DHT22;71832;45.138;9.816;2023-07-30T06:42:16;24.20;74.60
82231;DHT22;71832;45.138;9.816;2023-07-30T06:44:44;24.20;76.00
82231;DHT22;71832;45.138;9.816;2023-07-30T06:47:12;24.30;75.50
82231;DHT22;71832;45.138;9.816;2023-07-30T06:49:40;24.30;75.50
82231;DHT22;71832;45.138;9.816;2023-07-30T06:52:08;24.40;76.50
82231;DHT22;71832;45.138;9.816;2023-07-30T06:54:36;24.50;76.50
82231;DHT22;71832;45.138;9.816;2023-07-30T06:57:05;24.50;75.00
82231;DHT22;71832;45.138;9.816;2023-07-30T06:59:34;24.60;75.10
82231;DHT22;71832;45.138;9.816;2023-07-30T07:02:03;24.70;75.80
82231;DHT22;71832;45.138;9.816;2023-07-30T07:04:32;24.70;76.10
82231;DHT22;71832;45.138;9.816;2023-07-30T07:07:01;24.70;75.00
82231;DHT22;71832;45.138;9.816;2023-07-30T07:09:31;24.80;76.70
82231;DHT22;71832;45.138;9.816;2023-07-30T07:11:59;24.80;75.20
82231;DHT22;71832;45.138;9.816;2023-07-30T07:14:27;25.00;75.90
82231;DHT22;71832;45.138;9.816;2023-07-30T07:16:56;25.00;76.60
82231;DHT22;71832;45.138;9.816;2023-07-30T07:19:24;25.00;75.80
82231;DHT22;71832;45.138;9.816;2023-07-30T07:21:53;25.00;76.50
82231;DHT22;71832;45.138;9.816;2023-07-30T07:24:22;25.00;75.20
82231;DHT22;71832;45.138;9.816;2023-07-30T07:26:49;25.10;73.50
82231;DHT22;71832;45.138;9.816;2023-07-30T07:29:17;25.20;75.50
82231;DHT22;71832;45.138;9.816;2023-07-30T07:31:46;25.20;75.20
82231;DHT22;71832;45.138;9.816;2023-07-30T07:34:15;25.30;75.10
82231;DHT22;71832;45.138;9.816;2023-07-30T07:36:43;25.40;75.00
82231;DHT22;71832;45.138;9.816;2023-07-30T07:39:11;25.30;72.30
82231;DHT22;71832;45.138;9.816;2023-07-30T07:41:40;25.50;73.50
82231;DHT22;71832;45.138;9.816;2023-07-30T07:44:08;25.60;72.20
82231;DHT22;71832;45.138;9.816;2023-07-30T07:46:36;25.60;72.90
82231;DHT22;71832;45.138;9.816;2023-07-30T07:49:04;25.60;73.60
82231;DHT22;71832;45.138;9.816;2023-07-30T07:51:31;25.60;73.00
82231;DHT22;71832;45.138;9.816;2023-07-30T07:53:59;25.70;73.40
82231;DHT22;71832;45.138;9.816;2023-07-30T07:56:29;25.70;73.40
82231;DHT22;71832;45.138;9.816;2023-07-30T07:58:58;25.80;72.50
82231;DHT22;71832;45.138;9.816;2023-07-30T08:01:25;25.80;72.80
82231;DHT22;71832;45.138;9.816;2023-07-30T08:03:54;25.90;73.70
82231;DHT22;71832;45.138;9.816;2023-07-30T08:06:23;25.80;73.80
82231;DHT22;71832;45.138;9.816;2023-07-30T08:08:52;25.80;74.20
82231;DHT22;71832;45.138;9.816;2023-07-30T08:11:22;25.90;73.40
82231;DHT22;71832;45.138;9.816;2023-07-30T08:13:51;26.00;73.70
82231;DHT22;71832;45.138;9.816;2023-07-30T08:16:20;26.10;71.90
82231;DHT22;71832;45.138;9.816;2023-07-30T08:18:49;26.20;70.70
82231;DHT22;71832;45.138;9.816;2023-07-30T08:21:17;26.40;72.20
82231;DHT22;71832;45.138;9.816;2023-07-30T08:23:47;26.50;70.00
82231;DHT22;71832;45.138;9.816;2023-07-30T08:26:15;26.60;71.50
82231;DHT22;71832;45.138;9.816;2023-07-30T08:28:43;26.70;71.70
82231;DHT22;71832;45.138;9.816;2023-07-30T08:31:10;26.70;70.10
82231;DHT22;71832;45.138;9.816;2023-07-30T08:33:39;26.80;70.50
82231;DHT22;71832;45.138;9.816;2023-07-30T08:36:07;27.00;69.90
82231;DHT22;71832;45.138;9.816;2023-07-30T08:38:35;27.10;69.50
82231;DHT22;71832;45.138;9.816;2023-07-30T08:41:03;27.30;69.80
82231;DHT22;71832;45.138;9.816;2023-07-30T08:43:32;27.40;68.50
82231;DHT22;71832;45.138;9.816;2023-07-30T08:46:00;27.40;67.80
82231;DHT22;71832;45.138;9.816;2023-07-30T08:48:28;27.50;67.30
82231;DHT22;71832;45.138;9.816;2023-07-30T08:50:57;27.80;67.20
82231;DHT22;71832;45.138;9.816;2023-07-30T08:53:26;27.90;65.50
82231;DHT22;71832;45.138;9.816;2023-07-30T08:55:55;28.00;65.60
82231;DHT22;71832;45.138;9.816;2023-07-30T08:58:24;28.00;63.50
82231;DHT22;71832;45.138;9.816;2023-07-30T09:00:55;28.00;64.10
82231;DHT22;71832;45.138;9.816;2023-07-30T09:03:25;28.00;67.10
82231;DHT22;71832;45.138;9.816;2023-07-30T09:05:55;28.00;66.80
82231;DHT22;71832;45.138;9.816;2023-07-30T09:08:23;28.00;66.80
82231;DHT22;71832;45.138;9.816;2023-07-30T09:10:51;28.00;64.90
82231;DHT22;71832;45.138;9.816;2023-07-30T09:13:23;28.00;65.90
82231;DHT22;71832;45.138;9.816;2023-07-30T09:15:51;28.10;65.30
82231;DHT22;71832;45.138;9.816;2023-07-30T09:18:18;28.10;63.50
82231;DHT22;71832;45.138;9.816;2023-07-30T09:20:46;28.20;65.20
82231;DHT22;71832;45.138;9.816;2023-07-30T09:23:14;28.30;65.20
82231;DHT22;71832;45.138;9.816;2023-07-30T09:25:48;28.50;64.30
82231;DHT22;71832;45.138;9.816;2023-07-30T09:28:19;28.70;63.30
82231;DHT22;71832;45.138;9.816;2023-07-30T09:30:49;28.90;62.40
82231;DHT22;71832;45.138;9.816;2023-07-30T09:33:19;29.00;62.30
82231;DHT22;71832;45.138;9.816;2023-07-30T09:35:49;29.00;64.00
82231;DHT22;71832;45.138;9.816;2023-07-30T09:38:20;29.00;64.10
82231;DHT22;71832;45.138;9.816;2023-07-30T09:40:47;28.90;62.80
82231;DHT22;71832;45.138;9.816;2023-07-30T09:43:16;28.90;62.10
82231;DHT22;71832;45.138;9.816;2023-07-30T09:45:45;28.70;63.70
82231;DHT22;71832;45.138;9.816;2023-07-30T09:48:16;28.70;62.50
82231;DHT22;71832;45.138;9.816;2023-07-30T09:50:48;28.60;62.80
82231;DHT22;71832;45.138;9.816;2023-07-30T09:56:20;28.60;61.50
82231;DHT22;71832;45.138;9.816;2023-07-30T09:58:48;28.60;63.80
82231;DHT22;71832;45.138;9.816;2023-07-30T10:01:16;28.80;63.50
82231;DHT22;71832;45.138;9.816;2023-07-30T10:03:46;28.90;62.60
82231;DHT22;71832;45.138;9.816;2023-07-30T10:06:16;28.90;64.30
82231;DHT22;71832;45.138;9.816;2023-07-30T10:08:44;28.90;64.10
82231;DHT22;71832;45.138;9.816;2023-07-30T10:11:15;29.00;62.80
82231;DHT22;71832;45.138;9.816;2023-07-30T10:13:43;29.20;62.40
82231;DHT22;71832;45.138;9.816;2023-07-30T10:16:11;29.30;63.50
82231;DHT22;71832;45.138;9.816;2023-07-30T10:18:41;29.40;61.60
82231;DHT22;71832;45.138;9.816;2023-07-30T10:21:10;29.40;61.10
82231;DHT22;71832;45.138;9.816;2023-07-30T10:24:09;29.50;62.00
82231;DHT22;71832;45.138;9.816;2023-07-30T10:26:37;29.60;60.40
82231;DHT22;71832;45.138;9.816;2023-07-30T10:29:24;29.70;60.50
82231;DHT22;71832;45.138;9.816;2023-07-30T10:31:57;29.70;58.90
82231;DHT22;71832;45.138;9.816;2023-07-30T10:34:45;29.70;61.20
82231;DHT22;71832;45.138;9.816;2023-07-30T10:37:23;29.70;61.00
82231;DHT22;71832;45.138;9.816;2023-07-30T10:39:52;29.70;61.30
82231;DHT22;71832;45.138;9.816;2023-07-30T10:42:19;29.70;60.70
82231;DHT22;71832;45.138;9.816;2023-07-30T10:44:47;29.70;59.70
82231;DHT22;71832;45.138;9.816;2023-07-30T10:47:16;29.80;60.10
82231;DHT22;71832;45.138;9.816;2023-07-30T10:49:43;30.00;61.40
82231;DHT22;71832;45.138;9.816;2023-07-30T10:52:11;30.00;60.90
82231;DHT22;71832;45.138;9.816;2023-07-30T10:54:39;30.00;60.30
82231;DHT22;71832;45.138;9.816;2023-07-30T10:57:07;30.00;59.40
82231;DHT22;71832;45.138;9.816;2023-07-30T10:59:36;30.00;60.60
82231;DHT22;71832;45.138;9.816;2023-07-30T11:02:04;30.00;59.60
82231;DHT22;71832;45.138;9.816;2023-07-30T11:04:35;30.00;59.20
82231;DHT22;71832;45.138;9.816;2023-07-30T11:07:03;30.10;58.10
82231;DHT22;71832;45.138;9.816;2023-07-30T11:09:30;30.20;58.20
82231;DHT22;71832;45.138;9.816;2023-07-30T11:11:58;30.10;58.10
82231;DHT22;71832;45.138;9.816;2023-07-30T11:14:26;30.10;57.50
82231;DHT22;71832;45.138;9.816;2023-07-30T11:16:56;30.00;57.40
82231;DHT22;71832;45.138;9.816;2023-07-30T11:19:35;30.00;57.70
82231;DHT22;71832;45.138;9.816;2023-07-30T11:22:11;29.90;59.30
82231;DHT22;71832;45.138;9.816;2023-07-30T11:24:39;29.90;64.00
82231;DHT22;71832;45.138;9.816;2023-07-30T11:27:06;29.70;59.10
82231;DHT22;71832;45.138;9.816;2023-07-30T11:29:34;29.70;60.30
82231;DHT22;71832;45.138;9.816;2023-07-30T11:32:01;29.70;60.70
82231;DHT22;71832;45.138;9.816;2023-07-30T11:34:29;29.70;58.20
82231;DHT22;71832;45.138;9.816;2023-07-30T11:36:58;29.70;59.20
82231;DHT22;71832;45.138;9.816;2023-07-30T11:39:26;29.80;61.70
82231;DHT22;71832;45.138;9.816;2023-07-30T11:41:55;29.90;60.60
82231;DHT22;71832;45.138;9.816;2023-07-30T11:44:34;29.80;61.00
82231;DHT22;71832;45.138;9.816;2023-07-30T11:47:01;29.80;59.10
82231;DHT22;71832;45.138;9.816;2023-07-30T11:49:30;29.90;58.70
82231;DHT22;71832;45.138;9.816;2023-07-30T11:52:17;30.00;60.00
82231;DHT22;71832;45.138;9.816;2023-07-30T11:54:44;30.00;59.20
82231;DHT22;71832;45.138;9.816;2023-07-30T11:57:12;30.10;59.00
82231;DHT22;71832;45.138;9.816;2023-07-30T11:59:39;30.30;57.00
82231;DHT22;71832;45.138;9.816;2023-07-30T12:02:08;30.50;56.20
82231;DHT22;71832;45.138;9.816;2023-07-30T12:04:45;30.60;56.30
82231;DHT22;71832;45.138;9.816;2023-07-30T12:07:22;30.80;55.70
82231;DHT22;71832;45.138;9.816;2023-07-30T12:09:51;30.90;56.30
82231;DHT22;71832;45.138;9.816;2023-07-30T12:12:18;31.00;55.60
82231;DHT22;71832;45.138;9.816;2023-07-30T12:17:22;31.00;57.00
82231;DHT22;71832;45.138;9.816;2023-07-30T12:19:50;31.00;55.90
82231;DHT22;71832;45.138;9.816;2023-07-30T12:22:17;31.00;57.50
82231;DHT22;71832;45.138;9.816;2023-07-30T12:24:49;31.00;55.70
82231;DHT22;71832;45.138;9.816;2023-07-30T12:27:17;30.90;53.90
82231;DHT22;71832;45.138;9.816;2023-07-30T12:29:44;30.70;55.90
82231;DHT22;71832;45.138;9.816;2023-07-30T12:32:12;30.70;56.70
82231;DHT22;71832;45.138;9.816;2023-07-30T12:34:40;30.70;56.50
82231;DHT22;71832;45.138;9.816;2023-07-30T12:37:08;30.70;58.60
82231;DHT22;71832;45.138;9.816;2023-07-30T12:39:36;30.70;56.70
82231;DHT22;71832;45.138;9.816;2023-07-30T12:42:04;30.80;55.20
82231;DHT22;71832;45.138;9.816;2023-07-30T12:44:32;30.70;54.10
82231;DHT22;71832;45.138;9.816;2023-07-30T12:47:00;30.70;55.90
82231;DHT22;71832;45.138;9.816;2023-07-30T12:49:27;30.70;57.60
82231;DHT22;71832;45.138;9.816;2023-07-30T12:51:55;30.70;58.90
82231;DHT22;71832;45.138;9.816;2023-07-30T12:54:22;30.70;57.40
82231;DHT22;71832;45.138;9.816;2023-07-30T12:56:50;30.80;56.20
82231;DHT22;71832;45.138;9.816;2023-07-30T12:59:18;30.90;56.80
82231;DHT22;71832;45.138;9.816;2023-07-30T13:01:47;31.00;55.80
82231;DHT22;71832;45.138;9.816;2023-07-30T13:04:14;31.00;55.90
82231;DHT22;71832;45.138;9.816;2023-07-30T13:06:42;31.00;54.80
82231;DHT22;71832;45.138;9.816;2023-07-30T13:09:10;31.00;54.30
82231;DHT22;71832;45.138;9.816;2023-07-30T13:11:39;31.00;53.70
82231;DHT22;71832;45.138;9.816;2023-07-30T13:14:07;31.00;54.00
82231;DHT22;71832;45.138;9.816;2023-07-30T13:16:35;31.00;53.50
82231;DHT22;71832;45.138;9.816;2023-07-30T13:19:03;31.10;54.60
82231;DHT22;71832;45.138;9.816;2023-07-30T13:21:31;31.00;54.10
82231;DHT22;71832;45.138;9.816;2023-07-30T13:23:59;31.10;54.10
82231;DHT22;71832;45.138;9.816;2023-07-30T13:26:27;31.10;54.20
82231;DHT22;71832;45.138;9.816;2023-07-30T13:28:55;31.10;52.80
82231;DHT22;71832;45.138;9.816;2023-07-30T13:31:23;31.20;53.70
82231;DHT22;71832;45.138;9.816;2023-07-30T13:33:51;31.20;54.70
82231;DHT22;71832;45.138;9.816;2023-07-30T13:36:19;31.20;53.80
82231;DHT22;71832;45.138;9.816;2023-07-30T13:38:47;31.30;54.70
82231;DHT22;71832;45.138;9.816;2023-07-30T13:41:15;31.40;55.20
82231;DHT22;71832;45.138;9.816;2023-07-30T13:43:43;31.40;53.30
82231;DHT22;71832;45.138;9.816;2023-07-30T13:46:11;31.40;52.70
82231;DHT22;71832;45.138;9.816;2023-07-30T13:48:39;31.40;51.90
82231;DHT22;71832;45.138;9.816;2023-07-30T13:51:06;31.40;52.50
82231;DHT22;71832;45.138;9.816;2023-07-30T13:53:34;31.50;53.60
82231;DHT22;71832;45.138;9.816;2023-07-30T13:56:05;31.50;53.30
82231;DHT22;71832;45.138;9.816;2023-07-30T13:58:33;31.60;52.20
82231;DHT22;71832;45.138;9.816;2023-07-30T14:01:02;31.60;51.90
82231;DHT22;71832;45.138;9.816;2023-07-30T14:03:29;31.60;52.00
82231;DHT22;71832;45.138;9.816;2023-07-30T14:05:58;31.70;52.90
82231;DHT22;71832;45.138;9.816;2023-07-30T14:08:25;31.80;52.90
82231;DHT22;71832;45.138;9.816;2023-07-30T14:10:53;31.90;52.20
82231;DHT22;71832;45.138;9.816;2023-07-30T14:13:21;31.80;51.40
82231;DHT22;71832;45.138;9.816;2023-07-30T14:15:49;31.90;52.40
82231;DHT22;71832;45.138;9.816;2023-07-30T14:18:17;31.90;51.50
82231;DHT22;71832;45.138;9.816;2023-07-30T14:20:45;31.90;52.90
82231;DHT22;71832;45.138;9.816;2023-07-30T14:23:13;31.90;51.10
82231;DHT22;71832;45.138;9.816;2023-07-30T14:25:41;31.80;49.30
82231;DHT22;71832;45.138;9.816;2023-07-30T14:28:09;31.70;51.40
82231;DHT22;71832;45.138;9.816;2023-07-30T14:30:37;31.70;50.40
82231;DHT22;71832;45.138;9.816;2023-07-30T14:33:11;31.80;50.30
82231;DHT22;71832;45.138;9.816;2023-07-30T14:35:39;31.80;50.00
82231;DHT22;71832;45.138;9.816;2023-07-30T14:38:07;31.80;50.00
82231;DHT22;71832;45.138;9.816;2023-07-30T14:40:36;31.80;49.70
82231;DHT22;71832;45.138;9.816;2023-07-30T14:43:04;31.80;49.00
82231;DHT22;71832;45.138;9.816;2023-07-30T14:45:32;31.80;49.10
82231;DHT22;71832;45.138;9.816;2023-07-30T14:47:59;31.90;50.10
82231;DHT22;71832;45.138;9.816;2023-07-30T14:50:27;32.00;49.70
82231;DHT22;71832;45.138;9.816;2023-07-30T14:52:56;32.00;49.20
82231;DHT22;71832;45.138;9.816;2023-07-30T14:55:24;32.00;48.70
82231;DHT22;71832;45.138;9.816;2023-07-30T14:57:51;32.20;49.10
82231;DHT22;71832;45.138;9.816;2023-07-30T15:00:19;32.20;48.70
82231;DHT22;71832;45.138;9.816;2023-07-30T15:02:47;32.30;49.10
82231;DHT22;71832;45.138;9.816;2023-07-30T15:05:15;32.40;49.50
82231;DHT22;71832;45.138;9.816;2023-07-30T15:07:42;32.40;48.50
82231;DHT22;71832;45.138;9.816;2023-07-30T15:10:10;32.40;48.40
82231;DHT22;71832;45.138;9.816;2023-07-30T15:12:38;32.40;49.30
82231;DHT22;71832;45.138;9.816;2023-07-30T15:15:06;32.30;49.80
82231;DHT22;71832;45.138;9.816;2023-07-30T15:17:34;32.30;51.30
82231;DHT22;71832;45.138;9.816;2023-07-30T15:20:02;32.20;50.20
82231;DHT22;71832;45.138;9.816;2023-07-30T15:22:29;32.40;50.30
82231;DHT22;71832;45.138;9.816;2023-07-30T15:24:57;32.40;50.00
82231;DHT22;71832;45.138;9.816;2023-07-30T15:27:25;32.50;50.20
82231;DHT22;71832;45.138;9.816;2023-07-30T15:29:53;32.60;49.00
82231;DHT22;71832;45.138;9.816;2023-07-30T15:32:20;32.80;48.40
82231;DHT22;71832;45.138;9.816;2023-07-30T15:34:48;33.10;48.20
82231;DHT22;71832;45.138;9.816;2023-07-30T15:37:15;33.40;47.00
82231;DHT22;71832;45.138;9.816;2023-07-30T15:39:43;33.70;46.40
82231;DHT22;71832;45.138;9.816;2023-07-30T15:42:11;34.00;45.30
82231;DHT22;71832;45.138;9.816;2023-07-30T15:44:39;34.30;43.70